Spanish Fork, Utah
Current Conditions -  °F | °C
As of 6:49 AM on Friday 24 Oct 2014 (Local Time) from KPVU Reporting Station
Few Clouds Few Clouds  
Wind Chill: 43°   Ceiling: Unl
Heat Index: 46°   Visibility: 15mi
Dew Point: 28°   Wind: 7mph
Humidity: 50%   Direction: 110°ESE
Pressure: 30.17"   Gusts: NA
Location:  40.11°N, 111.65°W
Report Text: KPVU 241249Z 11006KT 15SM FEW160 08/M02 A3017
Loading
Personal Weather Stations






























Interactive Weather Map New forecast layout! Learn more

10-Day Weather Forecast

Advertisements
Track Severe Weather on mobile